sensor_id;sensor_type;location;lat;lon;timestamp;P1;durP1;ratioP1;P2;durP2;ratioP2
68989;SDS011;56046;47.270;11.368;2024-03-02T00:00:07;27.70;;;11.93;;
68989;SDS011;56046;47.270;11.368;2024-03-02T00:02:44;24.98;;;10.82;;
68989;SDS011;56046;47.270;11.368;2024-03-02T00:05:14;23.08;;;9.98;;
68989;SDS011;56046;47.270;11.368;2024-03-02T00:07:41;22.35;;;10.40;;
68989;SDS011;56046;47.270;11.368;2024-03-02T00:10:07;22.02;;;10.68;;
68989;SDS011;56046;47.270;11.368;2024-03-02T00:12:33;26.60;;;12.00;;
68989;SDS011;56046;47.270;11.368;2024-03-02T00:14:59;23.90;;;10.57;;
68989;SDS011;56046;47.270;11.368;2024-03-02T00:17:27;26.58;;;11.30;;
68989;SDS011;56046;47.270;11.368;2024-03-02T00:19:52;23.43;;;10.57;;
68989;SDS011;56046;47.270;11.368;2024-03-02T00:22:18;24.17;;;10.07;;
68989;SDS011;56046;47.270;11.368;2024-03-02T00:24:43;26.13;;;11.13;;
68989;SDS011;56046;47.270;11.368;2024-03-02T00:27:08;23.73;;;10.40;;
68989;SDS011;56046;47.270;11.368;2024-03-02T00:29:37;22.13;;;10.25;;
68989;SDS011;56046;47.270;11.368;2024-03-02T00:32:03;25.03;;;10.00;;
68989;SDS011;56046;47.270;11.368;2024-03-02T00:34:28;21.95;;;9.65;;
68989;SDS011;56046;47.270;11.368;2024-03-02T00:36:56;23.30;;;9.60;;
68989;SDS011;56046;47.270;11.368;2024-03-02T00:39:22;24.65;;;10.30;;
68989;SDS011;56046;47.270;11.368;2024-03-02T00:41:47;23.37;;;10.63;;
68989;SDS011;56046;47.270;11.368;2024-03-02T00:44:13;26.60;;;10.53;;
68989;SDS011;56046;47.270;11.368;2024-03-02T00:46:39;21.90;;;10.10;;
68989;SDS011;56046;47.270;11.368;2024-03-02T00:51:35;26.80;;;10.98;;
68989;SDS011;56046;47.270;11.368;2024-03-02T00:54:03;26.20;;;11.50;;
68989;SDS011;56046;47.270;11.368;2024-03-02T00:56:29;25.75;;;11.77;;
68989;SDS011;56046;47.270;11.368;2024-03-02T00:58:54;29.77;;;11.47;;
68989;SDS011;56046;47.270;11.368;2024-03-02T01:01:20;24.73;;;10.43;;
68989;SDS011;56046;47.270;11.368;2024-03-02T01:03:45;26.63;;;12.40;;
68989;SDS011;56046;47.270;11.368;2024-03-02T01:06:10;25.53;;;10.27;;
68989;SDS011;56046;47.270;11.368;2024-03-02T01:08:36;27.20;;;10.37;;
68989;SDS011;56046;47.270;11.368;2024-03-02T01:11:02;24.85;;;11.43;;
68989;SDS011;56046;47.270;11.368;2024-03-02T01:13:27;27.73;;;10.52;;
68989;SDS011;56046;47.270;11.368;2024-03-02T01:15:52;24.00;;;10.70;;
68989;SDS011;56046;47.270;11.368;2024-03-02T01:18:18;24.43;;;9.87;;
68989;SDS011;56046;47.270;11.368;2024-03-02T01:20:43;24.03;;;10.20;;
68989;SDS011;56046;47.270;11.368;2024-03-02T01:23:08;22.33;;;10.10;;
68989;SDS011;56046;47.270;11.368;2024-03-02T01:25:34;24.70;;;10.10;;
68989;SDS011;56046;47.270;11.368;2024-03-02T01:27:59;22.80;;;10.40;;
68989;SDS011;56046;47.270;11.368;2024-03-02T01:30:24;21.57;;;10.13;;
68989;SDS011;56046;47.270;11.368;2024-03-02T01:32:49;23.23;;;9.70;;
68989;SDS011;56046;47.270;11.368;2024-03-02T01:35:15;21.20;;;9.43;;
68989;SDS011;56046;47.270;11.368;2024-03-02T01:37:40;23.63;;;9.45;;
68989;SDS011;56046;47.270;11.368;2024-03-02T01:40:06;25.67;;;10.43;;
68989;SDS011;56046;47.270;11.368;2024-03-02T01:42:35;23.08;;;9.75;;
68989;SDS011;56046;47.270;11.368;2024-03-02T01:45:00;26.85;;;10.25;;
68989;SDS011;56046;47.270;11.368;2024-03-02T01:47:25;24.35;;;9.90;;
68989;SDS011;56046;47.270;11.368;2024-03-02T01:49:50;21.42;;;9.85;;
68989;SDS011;56046;47.270;11.368;2024-03-02T01:52:16;20.27;;;9.07;;
68989;SDS011;56046;47.270;11.368;2024-03-02T01:54:41;18.05;;;8.55;;
68989;SDS011;56046;47.270;11.368;2024-03-02T01:57:06;24.33;;;9.80;;
68989;SDS011;56046;47.270;11.368;2024-03-02T01:59:32;26.50;;;9.73;;
68989;SDS011;56046;47.270;11.368;2024-03-02T02:01:57;22.27;;;9.30;;
68989;SDS011;56046;47.270;11.368;2024-03-02T02:04:22;21.13;;;10.27;;
68989;SDS011;56046;47.270;11.368;2024-03-02T02:06:52;19.60;;;9.48;;
68989;SDS011;56046;47.270;11.368;2024-03-02T02:09:17;22.83;;;9.77;;
68989;SDS011;56046;47.270;11.368;2024-03-02T02:11:43;20.95;;;9.65;;
68989;SDS011;56046;47.270;11.368;2024-03-02T02:14:08;22.30;;;8.67;;
68989;SDS011;56046;47.270;11.368;2024-03-02T02:16:33;21.83;;;9.53;;
68989;SDS011;56046;47.270;11.368;2024-03-02T02:18:59;20.63;;;9.70;;
68989;SDS011;56046;47.270;11.368;2024-03-02T02:21:24;25.60;;;9.97;;
68989;SDS011;56046;47.270;11.368;2024-03-02T02:23:50;23.67;;;9.73;;
68989;SDS011;56046;47.270;11.368;2024-03-02T02:26:16;22.17;;;9.65;;
68989;SDS011;56046;47.270;11.368;2024-03-02T02:28:41;26.33;;;9.67;;
68989;SDS011;56046;47.270;11.368;2024-03-02T02:31:12;25.17;;;10.05;;
68989;SDS011;56046;47.270;11.368;2024-03-02T02:33:39;23.33;;;9.93;;
68989;SDS011;56046;47.270;11.368;2024-03-02T02:36:04;20.75;;;9.48;;
68989;SDS011;56046;47.270;11.368;2024-03-02T02:38:29;22.63;;;8.90;;
68989;SDS011;56046;47.270;11.368;2024-03-02T02:40:55;20.67;;;9.27;;
68989;SDS011;56046;47.270;11.368;2024-03-02T02:43:20;22.77;;;10.20;;
68989;SDS011;56046;47.270;11.368;2024-03-02T02:45:45;19.87;;;9.60;;
68989;SDS011;56046;47.270;11.368;2024-03-02T02:48:10;21.30;;;9.50;;
68989;SDS011;56046;47.270;11.368;2024-03-02T02:50:36;21.40;;;9.40;;
68989;SDS011;56046;47.270;11.368;2024-03-02T02:53:01;20.13;;;9.00;;
68989;SDS011;56046;47.270;11.368;2024-03-02T02:55:26;19.70;;;9.10;;
68989;SDS011;56046;47.270;11.368;2024-03-02T02:57:52;23.20;;;9.50;;
68989;SDS011;56046;47.270;11.368;2024-03-02T03:00:17;21.97;;;9.80;;
68989;SDS011;56046;47.270;11.368;2024-03-02T03:02:45;22.73;;;9.02;;
68989;SDS011;56046;47.270;11.368;2024-03-02T03:05:12;21.33;;;8.75;;
68989;SDS011;56046;47.270;11.368;2024-03-02T03:07:39;20.47;;;8.70;;
68989;SDS011;56046;47.270;11.368;2024-03-02T03:10:04;20.65;;;9.00;;
68989;SDS011;56046;47.270;11.368;2024-03-02T03:12:31;20.73;;;10.32;;
68989;SDS011;56046;47.270;11.368;2024-03-02T03:14:57;22.03;;;9.83;;
68989;SDS011;56046;47.270;11.368;2024-03-02T03:17:22;23.83;;;9.67;;
68989;SDS011;56046;47.270;11.368;2024-03-02T03:19:48;20.95;;;8.98;;
68989;SDS011;56046;47.270;11.368;2024-03-02T03:22:13;22.33;;;8.80;;
68989;SDS011;56046;47.270;11.368;2024-03-02T03:24:38;20.40;;;10.27;;
68989;SDS011;56046;47.270;11.368;2024-03-02T03:27:04;20.20;;;8.97;;
68989;SDS011;56046;47.270;11.368;2024-03-02T03:29:29;21.07;;;9.07;;
68989;SDS011;56046;47.270;11.368;2024-03-02T03:31:54;19.87;;;9.27;;
68989;SDS011;56046;47.270;11.368;2024-03-02T03:34:19;20.47;;;9.73;;
68989;SDS011;56046;47.270;11.368;2024-03-02T03:36:45;19.27;;;8.77;;
68989;SDS011;56046;47.270;11.368;2024-03-02T03:39:10;20.30;;;9.03;;
68989;SDS011;56046;47.270;11.368;2024-03-02T03:41:35;22.17;;;9.27;;
68989;SDS011;56046;47.270;11.368;2024-03-02T03:44:01;19.70;;;9.27;;
68989;SDS011;56046;47.270;11.368;2024-03-02T03:46:26;23.73;;;10.53;;
68989;SDS011;56046;47.270;11.368;2024-03-02T03:48:51;23.47;;;9.30;;
68989;SDS011;56046;47.270;11.368;2024-03-02T03:51:16;19.70;;;8.67;;
68989;SDS011;56046;47.270;11.368;2024-03-02T03:53:42;16.48;;;8.48;;
68989;SDS011;56046;47.270;11.368;2024-03-02T03:56:07;21.52;;;9.32;;
68989;SDS011;56046;47.270;11.368;2024-03-02T03:58:32;24.77;;;9.93;;
68989;SDS011;56046;47.270;11.368;2024-03-02T04:00:57;19.87;;;8.77;;
68989;SDS011;56046;47.270;11.368;2024-03-02T04:03:23;20.50;;;8.83;;
68989;SDS011;56046;47.270;11.368;2024-03-02T04:05:48;21.43;;;9.10;;
68989;SDS011;56046;47.270;11.368;2024-03-02T04:08:13;22.30;;;10.23;;
68989;SDS011;56046;47.270;11.368;2024-03-02T04:10:38;20.53;;;9.53;;
68989;SDS011;56046;47.270;11.368;2024-03-02T04:13:05;26.27;;;10.25;;
68989;SDS011;56046;47.270;11.368;2024-03-02T04:15:30;21.13;;;9.13;;
68989;SDS011;56046;47.270;11.368;2024-03-02T04:17:55;20.67;;;8.83;;
68989;SDS011;56046;47.270;11.368;2024-03-02T04:20:21;23.77;;;10.77;;
68989;SDS011;56046;47.270;11.368;2024-03-02T04:22:46;25.10;;;10.87;;
68989;SDS011;56046;47.270;11.368;2024-03-02T04:25:11;22.03;;;10.07;;
68989;SDS011;56046;47.270;11.368;2024-03-02T04:27:36;23.00;;;10.57;;
68989;SDS011;56046;47.270;11.368;2024-03-02T04:30:02;21.13;;;9.57;;
68989;SDS011;56046;47.270;11.368;2024-03-02T04:32:28;21.17;;;9.48;;
68989;SDS011;56046;47.270;11.368;2024-03-02T04:34:53;22.95;;;9.60;;
68989;SDS011;56046;47.270;11.368;2024-03-02T04:37:19;22.10;;;9.98;;
68989;SDS011;56046;47.270;11.368;2024-03-02T04:39:44;20.97;;;8.80;;
68989;SDS011;56046;47.270;11.368;2024-03-02T04:42:10;22.37;;;9.70;;
68989;SDS011;56046;47.270;11.368;2024-03-02T04:44:35;22.03;;;9.60;;
68989;SDS011;56046;47.270;11.368;2024-03-02T04:47:00;22.80;;;9.23;;
68989;SDS011;56046;47.270;11.368;2024-03-02T04:49:26;21.50;;;9.93;;
68989;SDS011;56046;47.270;11.368;2024-03-02T04:51:51;22.93;;;10.53;;
68989;SDS011;56046;47.270;11.368;2024-03-02T04:54:16;23.73;;;10.45;;
68989;SDS011;56046;47.270;11.368;2024-03-02T04:56:41;26.58;;;10.15;;
68989;SDS011;56046;47.270;11.368;2024-03-02T04:59:14;23.83;;;9.33;;
68989;SDS011;56046;47.270;11.368;2024-03-02T05:01:39;23.00;;;9.70;;
68989;SDS011;56046;47.270;11.368;2024-03-02T05:04:04;24.10;;;10.80;;
68989;SDS011;56046;47.270;11.368;2024-03-02T05:06:30;21.38;;;10.55;;
68989;SDS011;56046;47.270;11.368;2024-03-02T05:08:55;21.65;;;10.82;;
68989;SDS011;56046;47.270;11.368;2024-03-02T05:11:21;21.42;;;9.38;;
68989;SDS011;56046;47.270;11.368;2024-03-02T05:14:02;20.73;;;9.05;;
68989;SDS011;56046;47.270;11.368;2024-03-02T05:16:27;21.63;;;10.13;;
68989;SDS011;56046;47.270;11.368;2024-03-02T05:18:52;23.37;;;10.03;;
68989;SDS011;56046;47.270;11.368;2024-03-02T05:21:17;23.00;;;9.93;;
68989;SDS011;56046;47.270;11.368;2024-03-02T05:23:43;22.33;;;9.97;;
68989;SDS011;56046;47.270;11.368;2024-03-02T05:26:09;22.77;;;10.25;;
68989;SDS011;56046;47.270;11.368;2024-03-02T05:28:36;21.98;;;10.27;;
68989;SDS011;56046;47.270;11.368;2024-03-02T05:31:01;22.00;;;10.40;;
68989;SDS011;56046;47.270;11.368;2024-03-02T05:33:26;24.70;;;10.47;;
68989;SDS011;56046;47.270;11.368;2024-03-02T05:35:52;23.33;;;10.35;;
68989;SDS011;56046;47.270;11.368;2024-03-02T05:38:17;28.15;;;11.30;;
68989;SDS011;56046;47.270;11.368;2024-03-02T05:40:42;24.40;;;11.40;;
68989;SDS011;56046;47.270;11.368;2024-03-02T05:43:07;22.80;;;10.43;;
68989;SDS011;56046;47.270;11.368;2024-03-02T05:45:33;25.57;;;11.53;;
68989;SDS011;56046;47.270;11.368;2024-03-02T05:47:58;24.80;;;11.37;;
68989;SDS011;56046;47.270;11.368;2024-03-02T05:50:23;25.10;;;11.07;;
68989;SDS011;56046;47.270;11.368;2024-03-02T05:52:48;25.93;;;11.00;;
68989;SDS011;56046;47.270;11.368;2024-03-02T05:55:14;23.67;;;11.07;;
68989;SDS011;56046;47.270;11.368;2024-03-02T05:57:39;26.13;;;12.17;;
68989;SDS011;56046;47.270;11.368;2024-03-02T06:00:23;26.05;;;11.35;;
68989;SDS011;56046;47.270;11.368;2024-03-02T06:02:48;22.80;;;11.45;;
68989;SDS011;56046;47.270;11.368;2024-03-02T06:05:14;26.20;;;11.23;;
68989;SDS011;56046;47.270;11.368;2024-03-02T06:07:40;24.58;;;11.70;;
68989;SDS011;56046;47.270;11.368;2024-03-02T06:10:05;26.95;;;12.07;;
68989;SDS011;56046;47.270;11.368;2024-03-02T06:12:32;25.63;;;11.68;;
68989;SDS011;56046;47.270;11.368;2024-03-02T06:14:57;27.50;;;11.80;;
68989;SDS011;56046;47.270;11.368;2024-03-02T06:17:22;22.90;;;10.77;;
68989;SDS011;56046;47.270;11.368;2024-03-02T06:19:48;24.20;;;11.47;;
68989;SDS011;56046;47.270;11.368;2024-03-02T06:22:13;25.53;;;10.73;;
68989;SDS011;56046;47.270;11.368;2024-03-02T06:24:38;27.30;;;11.13;;
68989;SDS011;56046;47.270;11.368;2024-03-02T06:27:03;25.87;;;11.33;;
68989;SDS011;56046;47.270;11.368;2024-03-02T06:29:32;25.20;;;10.93;;
68989;SDS011;56046;47.270;11.368;2024-03-02T06:31:57;22.58;;;10.65;;
68989;SDS011;56046;47.270;11.368;2024-03-02T06:34:22;24.43;;;10.97;;
68989;SDS011;56046;47.270;11.368;2024-03-02T06:36:47;23.63;;;11.53;;
68989;SDS011;56046;47.270;11.368;2024-03-02T06:39:13;23.23;;;10.67;;
68989;SDS011;56046;47.270;11.368;2024-03-02T06:41:38;26.63;;;12.10;;
68989;SDS011;56046;47.270;11.368;2024-03-02T06:44:03;27.93;;;12.67;;
68989;SDS011;56046;47.270;11.368;2024-03-02T06:46:28;28.63;;;13.83;;
68989;SDS011;56046;47.270;11.368;2024-03-02T06:48:54;31.07;;;13.73;;
68989;SDS011;56046;47.270;11.368;2024-03-02T06:51:19;29.38;;;13.48;;
68989;SDS011;56046;47.270;11.368;2024-03-02T06:53:44;30.80;;;15.73;;
68989;SDS011;56046;47.270;11.368;2024-03-02T06:56:11;26.13;;;12.45;;
68989;SDS011;56046;47.270;11.368;2024-03-02T06:58:36;27.13;;;12.83;;
68989;SDS011;56046;47.270;11.368;2024-03-02T07:01:01;29.10;;;13.50;;
68989;SDS011;56046;47.270;11.368;2024-03-02T07:03:27;25.92;;;12.77;;
68989;SDS011;56046;47.270;11.368;2024-03-02T07:05:52;24.47;;;12.37;;
68989;SDS011;56046;47.270;11.368;2024-03-02T07:08:17;30.40;;;13.40;;
68989;SDS011;56046;47.270;11.368;2024-03-02T07:10:42;30.03;;;12.40;;
68989;SDS011;56046;47.270;11.368;2024-03-02T07:13:08;30.57;;;12.83;;
68989;SDS011;56046;47.270;11.368;2024-03-02T07:15:33;28.10;;;13.20;;
68989;SDS011;56046;47.270;11.368;2024-03-02T07:18:15;26.67;;;14.10;;
68989;SDS011;56046;47.270;11.368;2024-03-02T07:20:40;25.73;;;11.57;;
68989;SDS011;56046;47.270;11.368;2024-03-02T07:23:05;24.93;;;11.77;;
68989;SDS011;56046;47.270;11.368;2024-03-02T07:25:31;25.40;;;12.73;;
68989;SDS011;56046;47.270;11.368;2024-03-02T07:27:56;23.57;;;11.03;;
68989;SDS011;56046;47.270;11.368;2024-03-02T07:30:22;24.73;;;11.47;;
68989;SDS011;56046;47.270;11.368;2024-03-02T07:32:49;24.97;;;12.33;;
68989;SDS011;56046;47.270;11.368;2024-03-02T07:35:14;24.25;;;11.55;;
68989;SDS011;56046;47.270;11.368;2024-03-02T07:37:43;28.57;;;11.70;;
68989;SDS011;56046;47.270;11.368;2024-03-02T07:40:08;23.10;;;11.25;;
68989;SDS011;56046;47.270;11.368;2024-03-02T07:42:40;22.27;;;11.48;;
68989;SDS011;56046;47.270;11.368;2024-03-02T07:45:05;23.55;;;11.90;;
68989;SDS011;56046;47.270;11.368;2024-03-02T07:47:31;21.90;;;12.13;;
68989;SDS011;56046;47.270;11.368;2024-03-02T07:49:56;23.73;;;10.93;;
68989;SDS011;56046;47.270;11.368;2024-03-02T07:52:22;20.80;;;10.40;;
68989;SDS011;56046;47.270;11.368;2024-03-02T07:54:47;22.93;;;11.27;;
68989;SDS011;56046;47.270;11.368;2024-03-02T07:57:12;23.10;;;11.67;;
68989;SDS011;56046;47.270;11.368;2024-03-02T07:59:38;23.60;;;12.00;;
68989;SDS011;56046;47.270;11.368;2024-03-02T08:02:03;19.08;;;11.35;;
68989;SDS011;56046;47.270;11.368;2024-03-02T08:04:28;24.10;;;11.97;;
68989;SDS011;56046;47.270;11.368;2024-03-02T08:06:54;22.50;;;11.50;;
68989;SDS011;56046;47.270;11.368;2024-03-02T08:09:19;20.77;;;11.03;;
68989;SDS011;56046;47.270;11.368;2024-03-02T08:11:45;22.50;;;11.43;;
68989;SDS011;56046;47.270;11.368;2024-03-02T08:14:10;21.80;;;11.00;;
68989;SDS011;56046;47.270;11.368;2024-03-02T08:16:35;22.02;;;10.15;;
68989;SDS011;56046;47.270;11.368;2024-03-02T08:19:01;21.80;;;9.80;;
68989;SDS011;56046;47.270;11.368;2024-03-02T08:21:26;23.00;;;10.80;;
68989;SDS011;56046;47.270;11.368;2024-03-02T08:23:51;19.00;;;10.30;;
68989;SDS011;56046;47.270;11.368;2024-03-02T08:26:16;18.97;;;9.63;;
68989;SDS011;56046;47.270;11.368;2024-03-02T08:28:42;19.97;;;9.67;;
68989;SDS011;56046;47.270;11.368;2024-03-02T08:31:07;18.47;;;9.50;;
68989;SDS011;56046;47.270;11.368;2024-03-02T08:33:33;16.38;;;8.82;;
68989;SDS011;56046;47.270;11.368;2024-03-02T08:35:58;19.37;;;9.60;;
68989;SDS011;56046;47.270;11.368;2024-03-02T08:38:24;17.97;;;9.70;;
68989;SDS011;56046;47.270;11.368;2024-03-02T08:40:49;16.70;;;9.20;;
68989;SDS011;56046;47.270;11.368;2024-03-02T08:43:14;19.38;;;9.85;;
68989;SDS011;56046;47.270;11.368;2024-03-02T08:45:40;17.83;;;9.93;;
68989;SDS011;56046;47.270;11.368;2024-03-02T08:48:06;18.27;;;10.13;;
68989;SDS011;56046;47.270;11.368;2024-03-02T08:50:33;18.70;;;9.45;;
68989;SDS011;56046;47.270;11.368;2024-03-02T08:52:58;21.10;;;10.50;;
68989;SDS011;56046;47.270;11.368;2024-03-02T08:55:23;21.73;;;9.80;;
68989;SDS011;56046;47.270;11.368;2024-03-02T08:57:49;21.83;;;10.00;;
68989;SDS011;56046;47.270;11.368;2024-03-02T09:00:15;19.13;;;10.65;;
68989;SDS011;56046;47.270;11.368;2024-03-02T09:02:42;22.45;;;11.15;;
68989;SDS011;56046;47.270;11.368;2024-03-02T09:05:08;20.15;;;10.30;;
68989;SDS011;56046;47.270;11.368;2024-03-02T09:07:33;19.57;;;10.57;;
68989;SDS011;56046;47.270;11.368;2024-03-02T09:09:58;23.80;;;11.60;;
68989;SDS011;56046;47.270;11.368;2024-03-02T09:12:24;20.67;;;11.30;;
68989;SDS011;56046;47.270;11.368;2024-03-02T09:14:49;22.17;;;12.17;;
68989;SDS011;56046;47.270;11.368;2024-03-02T09:17:14;20.70;;;10.97;;
68989;SDS011;56046;47.270;11.368;2024-03-02T09:19:39;20.93;;;10.63;;
68989;SDS011;56046;47.270;11.368;2024-03-02T09:22:05;21.27;;;11.40;;
68989;SDS011;56046;47.270;11.368;2024-03-02T09:24:30;18.37;;;10.17;;
68989;SDS011;56046;47.270;11.368;2024-03-02T09:26:56;22.63;;;10.02;;
68989;SDS011;56046;47.270;11.368;2024-03-02T09:29:21;22.30;;;10.70;;
68989;SDS011;56046;47.270;11.368;2024-03-02T09:31:46;22.80;;;10.67;;
68989;SDS011;56046;47.270;11.368;2024-03-02T09:34:12;20.13;;;10.93;;
68989;SDS011;56046;47.270;11.368;2024-03-02T09:36:37;20.83;;;9.87;;
68989;SDS011;56046;47.270;11.368;2024-03-02T09:39:02;20.17;;;9.73;;
68989;SDS011;56046;47.270;11.368;2024-03-02T09:41:28;16.15;;;8.80;;
68989;SDS011;56046;47.270;11.368;2024-03-02T09:43:54;16.00;;;8.67;;
68989;SDS011;56046;47.270;11.368;2024-03-02T09:46:19;14.63;;;7.80;;
68989;SDS011;56046;47.270;11.368;2024-03-02T09:48:44;18.27;;;8.20;;
68989;SDS011;56046;47.270;11.368;2024-03-02T09:51:10;13.30;;;6.88;;
68989;SDS011;56046;47.270;11.368;2024-03-02T09:53:36;21.90;;;13.63;;
68989;SDS011;56046;47.270;11.368;2024-03-02T09:56:02;14.55;;;8.15;;
68989;SDS011;56046;47.270;11.368;2024-03-02T09:58:27;15.73;;;7.27;;
68989;SDS011;56046;47.270;11.368;2024-03-02T10:00:52;14.07;;;7.30;;
68989;SDS011;56046;47.270;11.368;2024-03-02T10:03:21;13.70;;;7.10;;
68989;SDS011;56046;47.270;11.368;2024-03-02T10:05:47;12.77;;;6.30;;
68989;SDS011;56046;47.270;11.368;2024-03-02T10:08:12;14.20;;;6.90;;
68989;SDS011;56046;47.270;11.368;2024-03-02T10:10:38;14.40;;;8.30;;
68989;SDS011;56046;47.270;11.368;2024-03-02T10:13:10;11.38;;;6.28;;
68989;SDS011;56046;47.270;11.368;2024-03-02T10:15:36;12.93;;;6.70;;
68989;SDS011;56046;47.270;11.368;2024-03-02T10:18:12;11.87;;;6.17;;
68989;SDS011;56046;47.270;11.368;2024-03-02T10:20:37;12.50;;;6.57;;
68989;SDS011;56046;47.270;11.368;2024-03-02T10:23:09;12.77;;;6.30;;
68989;SDS011;56046;47.270;11.368;2024-03-02T10:25:35;11.33;;;5.47;;
68989;SDS011;56046;47.270;11.368;2024-03-02T10:28:01;12.35;;;6.20;;
68989;SDS011;56046;47.270;11.368;2024-03-02T10:30:26;11.83;;;5.67;;
68989;SDS011;56046;47.270;11.368;2024-03-02T10:32:55;10.63;;;5.30;;
68989;SDS011;56046;47.270;11.368;2024-03-02T10:35:21;10.10;;;5.13;;
68989;SDS011;56046;47.270;11.368;2024-03-02T10:37:47;9.60;;;4.88;;
68989;SDS011;56046;47.270;11.368;2024-03-02T10:40:12;10.73;;;5.07;;
68989;SDS011;56046;47.270;11.368;2024-03-02T10:42:38;9.67;;;5.00;;
68989;SDS011;56046;47.270;11.368;2024-03-02T10:45:05;10.73;;;5.00;;
68989;SDS011;56046;47.270;11.368;2024-03-02T10:47:31;10.40;;;4.87;;
68989;SDS011;56046;47.270;11.368;2024-03-02T10:49:58;8.85;;;4.90;;
68989;SDS011;56046;47.270;11.368;2024-03-02T10:52:24;8.35;;;4.43;;
68989;SDS011;56046;47.270;11.368;2024-03-02T10:54:49;8.10;;;3.97;;
68989;SDS011;56046;47.270;11.368;2024-03-02T10:57:14;8.20;;;4.00;;
68989;SDS011;56046;47.270;11.368;2024-03-02T11:00:02;8.40;;;4.45;;
68989;SDS011;56046;47.270;11.368;2024-03-02T11:02:27;6.57;;;3.15;;
68989;SDS011;56046;47.270;11.368;2024-03-02T11:04:54;5.63;;;2.58;;
68989;SDS011;56046;47.270;11.368;2024-03-02T11:07:19;5.40;;;3.70;;
68989;SDS011;56046;47.270;11.368;2024-03-02T11:09:58;4.40;;;2.30;;
68989;SDS011;56046;47.270;11.368;2024-03-02T11:14:49;2.80;;;1.53;;
68989;SDS011;56046;47.270;11.368;2024-03-02T11:17:17;3.58;;;1.52;;
68989;SDS011;56046;47.270;11.368;2024-03-02T11:19:43;3.55;;;1.48;;
68989;SDS011;56046;47.270;11.368;2024-03-02T11:22:08;4.00;;;1.90;;
68989;SDS011;56046;47.270;11.368;2024-03-02T11:24:34;6.40;;;2.60;;
68989;SDS011;56046;47.270;11.368;2024-03-02T11:27:00;3.13;;;1.87;;
68989;SDS011;56046;47.270;11.368;2024-03-02T11:32:00;5.13;;;1.50;;
68989;SDS011;56046;47.270;11.368;2024-03-02T11:34:33;3.57;;;1.43;;
68989;SDS011;56046;47.270;11.368;2024-03-02T11:37:00;3.47;;;1.25;;
68989;SDS011;56046;47.270;11.368;2024-03-02T11:39:26;1.98;;;1.10;;
68989;SDS011;56046;47.270;11.368;2024-03-02T11:41:51;3.87;;;1.50;;
68989;SDS011;56046;47.270;11.368;2024-03-02T11:44:16;1.80;;;1.00;;
68989;SDS011;56046;47.270;11.368;2024-03-02T11:46:44;2.95;;;1.08;;
68989;SDS011;56046;47.270;11.368;2024-03-02T11:49:13;1.70;;;1.00;;
68989;SDS011;56046;47.270;11.368;2024-03-02T11:51:38;1.63;;;0.90;;
68989;SDS011;56046;47.270;11.368;2024-03-02T11:54:15;1.20;;;0.90;;
68989;SDS011;56046;47.270;11.368;2024-03-02T11:56:40;1.57;;;0.77;;
68989;SDS011;56046;47.270;11.368;2024-03-02T11:59:06;1.67;;;1.00;;
68989;SDS011;56046;47.270;11.368;2024-03-02T12:01:34;1.40;;;0.80;;
68989;SDS011;56046;47.270;11.368;2024-03-02T12:03:59;2.00;;;0.83;;
68989;SDS011;56046;47.270;11.368;2024-03-02T12:06:24;1.10;;;0.70;;
68989;SDS011;56046;47.270;11.368;2024-03-02T12:08:52;1.07;;;0.93;;
68989;SDS011;56046;47.270;11.368;2024-03-02T12:11:17;1.70;;;0.80;;
68989;SDS011;56046;47.270;11.368;2024-03-02T12:13:51;2.07;;;0.80;;
68989;SDS011;56046;47.270;11.368;2024-03-02T12:16:22;0.80;;;0.80;;
68989;SDS011;56046;47.270;11.368;2024-03-02T12:18:47;1.63;;;0.90;;
68989;SDS011;56046;47.270;11.368;2024-03-02T12:21:13;1.53;;;0.60;;
68989;SDS011;56046;47.270;11.368;2024-03-02T12:23:38;1.50;;;0.73;;
68989;SDS011;56046;47.270;11.368;2024-03-02T12:26:03;1.53;;;0.80;;
68989;SDS011;56046;47.270;11.368;2024-03-02T12:28:29;1.05;;;0.80;;
68989;SDS011;56046;47.270;11.368;2024-03-02T12:30:54;0.70;;;0.43;;
68989;SDS011;56046;47.270;11.368;2024-03-02T12:33:20;1.03;;;0.70;;
68989;SDS011;56046;47.270;11.368;2024-03-02T12:35:45;2.50;;;0.77;;
68989;SDS011;56046;47.270;11.368;2024-03-02T12:38:10;1.77;;;0.80;;
68989;SDS011;56046;47.270;11.368;2024-03-02T12:40:36;2.87;;;0.90;;
68989;SDS011;56046;47.270;11.368;2024-03-02T12:43:02;1.45;;;0.77;;
68989;SDS011;56046;47.270;11.368;2024-03-02T12:45:27;1.77;;;1.00;;
68989;SDS011;56046;47.270;11.368;2024-03-02T12:47:52;1.73;;;0.90;;
68989;SDS011;56046;47.270;11.368;2024-03-02T12:50:18;0.63;;;0.60;;
68989;SDS011;56046;47.270;11.368;2024-03-02T12:52:44;0.93;;;0.60;;
68989;SDS011;56046;47.270;11.368;2024-03-02T12:55:15;0.65;;;0.60;;
68989;SDS011;56046;47.270;11.368;2024-03-02T12:57:41;0.93;;;0.73;;
68989;SDS011;56046;47.270;11.368;2024-03-02T13:00:07;1.15;;;0.75;;
68989;SDS011;56046;47.270;11.368;2024-03-02T13:02:36;1.53;;;1.13;;
68989;SDS011;56046;47.270;11.368;2024-03-02T13:05:01;1.42;;;0.85;;
68989;SDS011;56046;47.270;11.368;2024-03-02T13:07:27;0.80;;;0.80;;
68989;SDS011;56046;47.270;11.368;2024-03-02T13:09:52;1.27;;;0.80;;
68989;SDS011;56046;47.270;11.368;2024-03-02T13:12:20;1.55;;;1.05;;
68989;SDS011;56046;47.270;11.368;2024-03-02T13:14:49;1.57;;;0.70;;
68989;SDS011;56046;47.270;11.368;2024-03-02T13:17:15;1.58;;;0.52;;
68989;SDS011;56046;47.270;11.368;2024-03-02T13:19:53;0.90;;;0.77;;
68989;SDS011;56046;47.270;11.368;2024-03-02T13:22:19;1.42;;;0.70;;
68989;SDS011;56046;47.270;11.368;2024-03-02T13:24:44;3.43;;;0.90;;
68989;SDS011;56046;47.270;11.368;2024-03-02T13:27:09;1.47;;;0.80;;
68989;SDS011;56046;47.270;11.368;2024-03-02T13:29:35;2.92;;;0.77;;
68989;SDS011;56046;47.270;11.368;2024-03-02T13:32:00;0.90;;;0.80;;
68989;SDS011;56046;47.270;11.368;2024-03-02T13:34:25;1.17;;;0.77;;
68989;SDS011;56046;47.270;11.368;2024-03-02T13:36:50;0.90;;;0.80;;
68989;SDS011;56046;47.270;11.368;2024-03-02T13:39:16;0.93;;;0.80;;
68989;SDS011;56046;47.270;11.368;2024-03-02T13:41:41;1.10;;;0.70;;
68989;SDS011;56046;47.270;11.368;2024-03-02T13:44:06;2.43;;;0.60;;
68989;SDS011;56046;47.270;11.368;2024-03-02T13:46:32;1.13;;;0.63;;
68989;SDS011;56046;47.270;11.368;2024-03-02T13:48:57;1.10;;;0.60;;
68989;SDS011;56046;47.270;11.368;2024-03-02T13:51:22;6.23;;;0.67;;
68989;SDS011;56046;47.270;11.368;2024-03-02T13:53:48;1.17;;;0.70;;
68989;SDS011;56046;47.270;11.368;2024-03-02T13:56:13;0.30;;;0.30;;
68989;SDS011;56046;47.270;11.368;2024-03-02T13:58:38;1.67;;;0.60;;
68989;SDS011;56046;47.270;11.368;2024-03-02T14:01:04;1.27;;;0.60;;
68989;SDS011;56046;47.270;11.368;2024-03-02T14:03:30;0.85;;;0.80;;
68989;SDS011;56046;47.270;11.368;2024-03-02T14:05:55;1.83;;;0.70;;
68989;SDS011;56046;47.270;11.368;2024-03-02T14:08:20;0.80;;;0.80;;
68989;SDS011;56046;47.270;11.368;2024-03-02T14:10:46;1.45;;;0.80;;
68989;SDS011;56046;47.270;11.368;2024-03-02T14:13:11;0.90;;;0.80;;
68989;SDS011;56046;47.270;11.368;2024-03-02T14:15:36;1.20;;;0.60;;
68989;SDS011;56046;47.270;11.368;2024-03-02T14:18:04;0.93;;;0.60;;